sensor_id;sensor_type;location;lat;lon;timestamp;P1;durP1;ratioP1;P2;durP2;ratioP2
52186;SDS011;38161;53.020;6.598;2023-07-29T00:00:03;92.80;;;85.72;;
52186;SDS011;38161;53.020;6.598;2023-07-29T00:02:29;95.70;;;88.78;;
52186;SDS011;38161;53.020;6.598;2023-07-29T00:04:57;86.10;;;80.75;;
52186;SDS011;38161;53.020;6.598;2023-07-29T00:07:23;91.15;;;85.03;;
52186;SDS011;38161;53.020;6.598;2023-07-29T00:09:50;102.47;;;95.80;;
52186;SDS011;38161;53.020;6.598;2023-07-29T00:12:16;86.65;;;79.25;;
52186;SDS011;38161;53.020;6.598;2023-07-29T00:14:43;83.95;;;78.53;;
52186;SDS011;38161;53.020;6.598;2023-07-29T00:17:10;104.47;;;95.93;;
52186;SDS011;38161;53.020;6.598;2023-07-29T00:19:36;117.05;;;89.38;;
52186;SDS011;38161;53.020;6.598;2023-07-29T00:22:03;89.65;;;83.82;;
52186;SDS011;38161;53.020;6.598;2023-07-29T00:24:30;148.38;;;103.32;;
52186;SDS011;38161;53.020;6.598;2023-07-29T00:26:56;92.63;;;83.43;;
52186;SDS011;38161;53.020;6.598;2023-07-29T00:31:48;93.47;;;86.78;;
52186;SDS011;38161;53.020;6.598;2023-07-29T00:34:15;96.20;;;87.07;;
52186;SDS011;38161;53.020;6.598;2023-07-29T00:36:45;95.45;;;89.22;;
52186;SDS011;38161;53.020;6.598;2023-07-29T00:39:11;83.85;;;78.80;;
52186;SDS011;38161;53.020;6.598;2023-07-29T00:41:40;83.22;;;77.57;;
52186;SDS011;38161;53.020;6.598;2023-07-29T00:44:06;95.07;;;87.60;;
52186;SDS011;38161;53.020;6.598;2023-07-29T00:46:34;86.97;;;81.63;;
52186;SDS011;38161;53.020;6.598;2023-07-29T00:49:01;95.13;;;87.35;;
52186;SDS011;38161;53.020;6.598;2023-07-29T00:51:28;94.82;;;88.22;;
52186;SDS011;38161;53.020;6.598;2023-07-29T00:53:55;93.70;;;84.30;;
52186;SDS011;38161;53.020;6.598;2023-07-29T00:56:31;110.47;;;99.25;;
52186;SDS011;38161;53.020;6.598;2023-07-29T01:01:34;89.03;;;82.45;;
52186;SDS011;38161;53.020;6.598;2023-07-29T01:04:01;85.78;;;79.45;;
52186;SDS011;38161;53.020;6.598;2023-07-29T01:06:33;90.05;;;83.70;;
52186;SDS011;38161;53.020;6.598;2023-07-29T01:15:54;78.78;;;72.93;;
52186;SDS011;38161;53.020;6.598;2023-07-29T01:18:45;85.72;;;79.53;;
52186;SDS011;38161;53.020;6.598;2023-07-29T01:21:14;79.18;;;73.25;;
52186;SDS011;38161;53.020;6.598;2023-07-29T01:23:44;78.70;;;74.03;;
52186;SDS011;38161;53.020;6.598;2023-07-29T01:28:36;73.38;;;69.05;;
52186;SDS011;38161;53.020;6.598;2023-07-29T01:34:08;77.45;;;72.70;;
52186;SDS011;38161;53.020;6.598;2023-07-29T01:37:03;71.60;;;67.40;;
52186;SDS011;38161;53.020;6.598;2023-07-29T01:39:58;80.70;;;74.07;;
52186;SDS011;38161;53.020;6.598;2023-07-29T01:42:39;76.38;;;71.85;;
52186;SDS011;38161;53.020;6.598;2023-07-29T01:45:26;72.20;;;67.93;;
52186;SDS011;38161;53.020;6.598;2023-07-29T01:47:52;78.72;;;73.85;;
52186;SDS011;38161;53.020;6.598;2023-07-29T01:50:28;87.78;;;82.40;;
52186;SDS011;38161;53.020;6.598;2023-07-29T01:53:05;81.40;;;75.90;;
52186;SDS011;38161;53.020;6.598;2023-07-29T01:55:31;87.55;;;82.05;;
52186;SDS011;38161;53.020;6.598;2023-07-29T01:57:57;77.30;;;72.63;;
52186;SDS011;38161;53.020;6.598;2023-07-29T02:00:27;86.40;;;80.72;;
52186;SDS011;38161;53.020;6.598;2023-07-29T02:03:18;81.20;;;75.35;;
52186;SDS011;38161;53.020;6.598;2023-07-29T02:06:44;80.07;;;74.18;;
52186;SDS011;38161;53.020;6.598;2023-07-29T02:09:12;77.25;;;72.75;;
52186;SDS011;38161;53.020;6.598;2023-07-29T02:11:40;84.22;;;78.80;;
52186;SDS011;38161;53.020;6.598;2023-07-29T02:14:14;77.32;;;72.95;;
52186;SDS011;38161;53.020;6.598;2023-07-29T02:16:43;89.20;;;83.47;;
52186;SDS011;38161;53.020;6.598;2023-07-29T02:19:26;86.72;;;81.40;;
52186;SDS011;38161;53.020;6.598;2023-07-29T02:21:55;86.10;;;80.80;;
52186;SDS011;38161;53.020;6.598;2023-07-29T02:24:27;88.57;;;82.68;;
52186;SDS011;38161;53.020;6.598;2023-07-29T02:27:13;79.35;;;74.30;;
52186;SDS011;38161;53.020;6.598;2023-07-29T02:29:44;88.65;;;82.65;;
52186;SDS011;38161;53.020;6.598;2023-07-29T02:32:11;86.00;;;80.75;;
52186;SDS011;38161;53.020;6.598;2023-07-29T02:34:38;84.13;;;79.03;;
52186;SDS011;38161;53.020;6.598;2023-07-29T02:37:05;81.95;;;76.40;;
52186;SDS011;38161;53.020;6.598;2023-07-29T02:39:37;83.03;;;78.20;;
52186;SDS011;38161;53.020;6.598;2023-07-29T02:42:03;81.47;;;73.75;;
52186;SDS011;38161;53.020;6.598;2023-07-29T02:44:34;79.82;;;74.85;;
52186;SDS011;38161;53.020;6.598;2023-07-29T02:47:11;81.05;;;75.85;;
52186;SDS011;38161;53.020;6.598;2023-07-29T02:52:25;81.68;;;76.55;;
52186;SDS011;38161;53.020;6.598;2023-07-29T02:54:56;82.53;;;77.32;;
52186;SDS011;38161;53.020;6.598;2023-07-29T02:57:32;82.28;;;76.68;;
52186;SDS011;38161;53.020;6.598;2023-07-29T03:00:03;78.72;;;74.13;;
52186;SDS011;38161;53.020;6.598;2023-07-29T03:02:32;79.97;;;75.45;;
52186;SDS011;38161;53.020;6.598;2023-07-29T03:05:10;71.18;;;67.00;;
52186;SDS011;38161;53.020;6.598;2023-07-29T03:07:37;84.47;;;79.22;;
52186;SDS011;38161;53.020;6.598;2023-07-29T03:10:04;81.53;;;76.75;;
52186;SDS011;38161;53.020;6.598;2023-07-29T03:12:47;81.82;;;76.70;;
52186;SDS011;38161;53.020;6.598;2023-07-29T03:15:24;82.68;;;76.53;;
52186;SDS011;38161;53.020;6.598;2023-07-29T03:17:54;85.18;;;79.10;;
52186;SDS011;38161;53.020;6.598;2023-07-29T03:23:05;75.72;;;71.40;;
52186;SDS011;38161;53.020;6.598;2023-07-29T03:25:47;81.07;;;76.30;;
52186;SDS011;38161;53.020;6.598;2023-07-29T03:28:25;79.93;;;75.28;;
52186;SDS011;38161;53.020;6.598;2023-07-29T03:30:59;74.72;;;70.40;;
52186;SDS011;38161;53.020;6.598;2023-07-29T03:33:31;79.97;;;75.43;;
52186;SDS011;38161;53.020;6.598;2023-07-29T03:38:50;73.10;;;68.78;;
52186;SDS011;38161;53.020;6.598;2023-07-29T03:41:16;77.57;;;73.20;;
52186;SDS011;38161;53.020;6.598;2023-07-29T03:43:46;77.03;;;72.72;;
52186;SDS011;38161;53.020;6.598;2023-07-29T03:46:13;78.63;;;74.28;;
52186;SDS011;38161;53.020;6.598;2023-07-29T03:48:49;77.95;;;73.55;;
52186;SDS011;38161;53.020;6.598;2023-07-29T03:51:15;77.38;;;73.13;;
52186;SDS011;38161;53.020;6.598;2023-07-29T03:53:45;74.72;;;70.10;;
52186;SDS011;38161;53.020;6.598;2023-07-29T03:56:24;73.90;;;69.65;;
52186;SDS011;38161;53.020;6.598;2023-07-29T03:59:02;79.88;;;74.80;;
52186;SDS011;38161;53.020;6.598;2023-07-29T04:01:44;84.32;;;78.65;;
52186;SDS011;38161;53.020;6.598;2023-07-29T04:04:13;79.15;;;74.75;;
52186;SDS011;38161;53.020;6.598;2023-07-29T04:06:39;77.00;;;72.65;;
52186;SDS011;38161;53.020;6.598;2023-07-29T04:12:05;79.70;;;75.15;;
52186;SDS011;38161;53.020;6.598;2023-07-29T04:14:37;78.88;;;74.43;;
52186;SDS011;38161;53.020;6.598;2023-07-29T04:17:17;82.80;;;78.05;;
52186;SDS011;38161;53.020;6.598;2023-07-29T04:19:43;81.72;;;76.60;;
52186;SDS011;38161;53.020;6.598;2023-07-29T04:22:16;78.68;;;74.40;;
52186;SDS011;38161;53.020;6.598;2023-07-29T04:24:46;78.43;;;73.65;;
52186;SDS011;38161;53.020;6.598;2023-07-29T04:27:13;78.90;;;74.53;;
52186;SDS011;38161;53.020;6.598;2023-07-29T04:29:44;83.43;;;77.72;;
52186;SDS011;38161;53.020;6.598;2023-07-29T04:32:10;85.03;;;78.18;;
52186;SDS011;38161;53.020;6.598;2023-07-29T04:34:39;78.65;;;74.00;;
52186;SDS011;38161;53.020;6.598;2023-07-29T04:37:12;80.72;;;75.85;;
52186;SDS011;38161;53.020;6.598;2023-07-29T04:39:53;75.50;;;71.13;;
52186;SDS011;38161;53.020;6.598;2023-07-29T04:42:36;80.30;;;75.47;;
52186;SDS011;38161;53.020;6.598;2023-07-29T04:45:17;83.93;;;78.75;;
52186;SDS011;38161;53.020;6.598;2023-07-29T04:47:43;78.15;;;73.82;;
52186;SDS011;38161;53.020;6.598;2023-07-29T04:50:13;78.85;;;74.10;;
52186;SDS011;38161;53.020;6.598;2023-07-29T04:52:40;77.55;;;72.80;;
52186;SDS011;38161;53.020;6.598;2023-07-29T04:55:07;83.55;;;78.65;;
52186;SDS011;38161;53.020;6.598;2023-07-29T04:57:34;77.43;;;72.97;;
52186;SDS011;38161;53.020;6.598;2023-07-29T05:00:02;80.57;;;75.97;;
52186;SDS011;38161;53.020;6.598;2023-07-29T05:02:40;79.15;;;74.63;;
52186;SDS011;38161;53.020;6.598;2023-07-29T05:05:07;76.00;;;71.80;;
52186;SDS011;38161;53.020;6.598;2023-07-29T05:07:47;78.93;;;74.53;;
52186;SDS011;38161;53.020;6.598;2023-07-29T05:10:15;74.38;;;70.22;;
52186;SDS011;38161;53.020;6.598;2023-07-29T05:12:49;79.88;;;74.75;;
52186;SDS011;38161;53.020;6.598;2023-07-29T05:15:20;79.22;;;74.68;;
52186;SDS011;38161;53.020;6.598;2023-07-29T05:17:59;75.95;;;71.72;;
52186;SDS011;38161;53.020;6.598;2023-07-29T05:20:32;84.35;;;79.45;;
52186;SDS011;38161;53.020;6.598;2023-07-29T05:23:05;79.78;;;75.47;;
52186;SDS011;38161;53.020;6.598;2023-07-29T05:25:31;79.30;;;74.63;;
52186;SDS011;38161;53.020;6.598;2023-07-29T05:27:57;80.20;;;75.50;;
52186;SDS011;38161;53.020;6.598;2023-07-29T05:30:49;76.85;;;72.53;;
52186;SDS011;38161;53.020;6.598;2023-07-29T05:33:31;75.72;;;71.60;;
52186;SDS011;38161;53.020;6.598;2023-07-29T05:35:58;84.13;;;78.95;;
52186;SDS011;38161;53.020;6.598;2023-07-29T05:38:24;76.88;;;72.53;;
52186;SDS011;38161;53.020;6.598;2023-07-29T05:40:55;79.40;;;74.28;;
52186;SDS011;38161;53.020;6.598;2023-07-29T05:43:24;76.90;;;72.53;;
52186;SDS011;38161;53.020;6.598;2023-07-29T05:45:50;80.88;;;76.40;;
52186;SDS011;38161;53.020;6.598;2023-07-29T05:48:16;73.80;;;69.72;;
52186;SDS011;38161;53.020;6.598;2023-07-29T05:50:43;83.45;;;78.68;;
52186;SDS011;38161;53.020;6.598;2023-07-29T05:53:11;84.22;;;78.22;;
52186;SDS011;38161;53.020;6.598;2023-07-29T05:55:38;78.18;;;73.25;;
52186;SDS011;38161;53.020;6.598;2023-07-29T05:58:04;73.85;;;69.60;;
52186;SDS011;38161;53.020;6.598;2023-07-29T06:02:56;76.97;;;72.75;;
52186;SDS011;38161;53.020;6.598;2023-07-29T06:07:50;79.38;;;74.82;;
52186;SDS011;38161;53.020;6.598;2023-07-29T06:10:17;68.53;;;64.63;;
52186;SDS011;38161;53.020;6.598;2023-07-29T06:12:44;74.45;;;70.03;;
52186;SDS011;38161;53.020;6.598;2023-07-29T06:15:10;78.80;;;74.32;;
52186;SDS011;38161;53.020;6.598;2023-07-29T06:17:39;79.50;;;74.80;;
52186;SDS011;38161;53.020;6.598;2023-07-29T06:20:08;74.55;;;70.10;;
52186;SDS011;38161;53.020;6.598;2023-07-29T06:22:35;81.10;;;76.13;;
52186;SDS011;38161;53.020;6.598;2023-07-29T06:25:04;81.20;;;76.35;;
52186;SDS011;38161;53.020;6.598;2023-07-29T06:27:39;81.53;;;76.95;;
52186;SDS011;38161;53.020;6.598;2023-07-29T06:30:07;77.03;;;72.65;;
52186;SDS011;38161;53.020;6.598;2023-07-29T06:32:35;83.00;;;77.55;;
52186;SDS011;38161;53.020;6.598;2023-07-29T06:35:02;87.65;;;82.05;;
52186;SDS011;38161;53.020;6.598;2023-07-29T06:37:28;90.75;;;85.63;;
52186;SDS011;38161;53.020;6.598;2023-07-29T06:39:54;87.03;;;82.30;;
52186;SDS011;38161;53.020;6.598;2023-07-29T06:42:21;90.85;;;85.70;;
52186;SDS011;38161;53.020;6.598;2023-07-29T06:44:48;90.15;;;84.88;;
52186;SDS011;38161;53.020;6.598;2023-07-29T06:47:15;94.10;;;88.60;;
52186;SDS011;38161;53.020;6.598;2023-07-29T06:49:41;97.35;;;91.32;;
52186;SDS011;38161;53.020;6.598;2023-07-29T06:52:07;99.95;;;93.45;;
52186;SDS011;38161;53.020;6.598;2023-07-29T06:54:33;92.38;;;87.15;;
52186;SDS011;38161;53.020;6.598;2023-07-29T06:57:00;93.88;;;88.20;;
52186;SDS011;38161;53.020;6.598;2023-07-29T06:59:30;89.65;;;84.30;;
52186;SDS011;38161;53.020;6.598;2023-07-29T07:01:56;91.63;;;86.35;;
52186;SDS011;38161;53.020;6.598;2023-07-29T07:04:25;94.85;;;89.13;;
52186;SDS011;38161;53.020;6.598;2023-07-29T07:06:52;100.30;;;93.88;;
52186;SDS011;38161;53.020;6.598;2023-07-29T07:09:20;96.47;;;90.07;;
52186;SDS011;38161;53.020;6.598;2023-07-29T07:12:01;95.18;;;89.50;;
52186;SDS011;38161;53.020;6.598;2023-07-29T07:16:53;86.43;;;81.40;;
52186;SDS011;38161;53.020;6.598;2023-07-29T07:19:23;91.97;;;86.15;;
52186;SDS011;38161;53.020;6.598;2023-07-29T07:21:59;92.80;;;86.93;;
52186;SDS011;38161;53.020;6.598;2023-07-29T07:24:29;89.38;;;83.85;;
52186;SDS011;38161;53.020;6.598;2023-07-29T07:26:59;111.10;;;102.28;;
52186;SDS011;38161;53.020;6.598;2023-07-29T07:29:26;98.78;;;92.72;;
52186;SDS011;38161;53.020;6.598;2023-07-29T07:31:55;99.53;;;92.25;;
52186;SDS011;38161;53.020;6.598;2023-07-29T07:34:22;91.43;;;85.80;;
52186;SDS011;38161;53.020;6.598;2023-07-29T07:36:49;96.88;;;89.32;;
52186;SDS011;38161;53.020;6.598;2023-07-29T07:39:19;99.18;;;92.07;;
52186;SDS011;38161;53.020;6.598;2023-07-29T07:41:55;103.38;;;94.35;;
52186;SDS011;38161;53.020;6.598;2023-07-29T07:44:22;111.25;;;103.90;;
52186;SDS011;38161;53.020;6.598;2023-07-29T07:46:53;92.43;;;87.05;;
52186;SDS011;38161;53.020;6.598;2023-07-29T07:49:22;106.80;;;100.20;;
52186;SDS011;38161;53.020;6.598;2023-07-29T07:51:49;98.43;;;92.10;;
52186;SDS011;38161;53.020;6.598;2023-07-29T07:54:19;109.82;;;101.78;;
52186;SDS011;38161;53.020;6.598;2023-07-29T07:56:57;111.70;;;99.35;;
52186;SDS011;38161;53.020;6.598;2023-07-29T07:59:39;105.20;;;98.18;;
52186;SDS011;38161;53.020;6.598;2023-07-29T08:02:09;105.18;;;97.97;;
52186;SDS011;38161;53.020;6.598;2023-07-29T08:04:38;97.30;;;90.97;;
52186;SDS011;38161;53.020;6.598;2023-07-29T08:07:06;95.63;;;90.18;;
52186;SDS011;38161;53.020;6.598;2023-07-29T08:09:33;93.07;;;87.15;;
52186;SDS011;38161;53.020;6.598;2023-07-29T08:11:59;99.50;;;93.28;;
52186;SDS011;38161;53.020;6.598;2023-07-29T08:14:29;100.85;;;93.65;;
52186;SDS011;38161;53.020;6.598;2023-07-29T08:17:02;114.63;;;107.10;;
52186;SDS011;38161;53.020;6.598;2023-07-29T08:19:33;92.60;;;87.18;;
52186;SDS011;38161;53.020;6.598;2023-07-29T08:22:02;165.10;;;111.93;;
52186;SDS011;38161;53.020;6.598;2023-07-29T08:24:29;119.18;;;110.60;;
52186;SDS011;38161;53.020;6.598;2023-07-29T08:26:58;94.30;;;87.70;;
52186;SDS011;38161;53.020;6.598;2023-07-29T08:29:28;112.85;;;101.78;;
52186;SDS011;38161;53.020;6.598;2023-07-29T08:31:55;116.25;;;107.97;;
52186;SDS011;38161;53.020;6.598;2023-07-29T08:34:28;110.47;;;102.85;;
52186;SDS011;38161;53.020;6.598;2023-07-29T08:39:25;102.38;;;95.90;;
52186;SDS011;38161;53.020;6.598;2023-07-29T08:42:04;108.25;;;100.28;;
52186;SDS011;38161;53.020;6.598;2023-07-29T08:44:44;115.32;;;105.78;;
52186;SDS011;38161;53.020;6.598;2023-07-29T08:47:18;105.68;;;96.60;;
52186;SDS011;38161;53.020;6.598;2023-07-29T08:49:45;106.30;;;99.40;;
52186;SDS011;38161;53.020;6.598;2023-07-29T08:52:17;117.80;;;105.63;;
52186;SDS011;38161;53.020;6.598;2023-07-29T08:54:49;106.35;;;97.07;;
52186;SDS011;38161;53.020;6.598;2023-07-29T08:57:20;95.45;;;89.85;;
52186;SDS011;38161;53.020;6.598;2023-07-29T08:59:47;116.43;;;104.32;;
52186;SDS011;38161;53.020;6.598;2023-07-29T09:02:15;151.15;;;112.13;;
52186;SDS011;38161;53.020;6.598;2023-07-29T09:04:47;119.20;;;93.07;;
52186;SDS011;38161;53.020;6.598;2023-07-29T09:07:17;108.07;;;94.75;;
52186;SDS011;38161;53.020;6.598;2023-07-29T09:09:44;113.68;;;103.35;;
52186;SDS011;38161;53.020;6.598;2023-07-29T09:12:12;116.05;;;102.60;;
52186;SDS011;38161;53.020;6.598;2023-07-29T09:14:41;99.80;;;92.13;;
52186;SDS011;38161;53.020;6.598;2023-07-29T09:19:35;93.63;;;84.60;;
52186;SDS011;38161;53.020;6.598;2023-07-29T09:22:03;111.97;;;101.18;;
52186;SDS011;38161;53.020;6.598;2023-07-29T09:24:30;100.10;;;92.93;;
52186;SDS011;38161;53.020;6.598;2023-07-29T09:26:57;102.03;;;95.32;;
52186;SDS011;38161;53.020;6.598;2023-07-29T09:31:53;88.18;;;82.68;;
52186;SDS011;38161;53.020;6.598;2023-07-29T09:34:20;121.70;;;112.25;;
52186;SDS011;38161;53.020;6.598;2023-07-29T09:39:15;79.45;;;74.80;;
52186;SDS011;38161;53.020;6.598;2023-07-29T09:41:45;103.20;;;95.78;;
52186;SDS011;38161;53.020;6.598;2023-07-29T09:44:15;114.85;;;104.20;;
52186;SDS011;38161;53.020;6.598;2023-07-29T09:46:49;401.45;;;131.70;;
52186;SDS011;38161;53.020;6.598;2023-07-29T09:49:16;108.82;;;100.75;;
52186;SDS011;38161;53.020;6.598;2023-07-29T09:51:44;112.78;;;100.72;;
52186;SDS011;38161;53.020;6.598;2023-07-29T09:54:10;105.20;;;98.47;;
52186;SDS011;38161;53.020;6.598;2023-07-29T09:56:39;127.10;;;106.28;;
52186;SDS011;38161;53.020;6.598;2023-07-29T09:59:10;121.45;;;105.13;;
52186;SDS011;38161;53.020;6.598;2023-07-29T10:01:37;125.25;;;102.15;;
52186;SDS011;38161;53.020;6.598;2023-07-29T10:04:08;110.88;;;100.93;;
52186;SDS011;38161;53.020;6.598;2023-07-29T10:06:36;133.73;;;112.18;;
52186;SDS011;38161;53.020;6.598;2023-07-29T10:09:04;133.27;;;110.30;;
52186;SDS011;38161;53.020;6.598;2023-07-29T10:11:31;96.57;;;89.05;;
52186;SDS011;38161;53.020;6.598;2023-07-29T10:14:06;140.68;;;99.88;;
52186;SDS011;38161;53.020;6.598;2023-07-29T10:16:34;178.52;;;115.72;;
52186;SDS011;38161;53.020;6.598;2023-07-29T10:19:02;171.63;;;101.05;;
52186;SDS011;38161;53.020;6.598;2023-07-29T10:21:30;121.20;;;94.60;;
52186;SDS011;38161;53.020;6.598;2023-07-29T10:23:57;145.30;;;101.60;;
52186;SDS011;38161;53.020;6.598;2023-07-29T10:26:28;149.40;;;107.53;;
52186;SDS011;38161;53.020;6.598;2023-07-29T10:28:56;131.77;;;118.38;;
52186;SDS011;38161;53.020;6.598;2023-07-29T10:31:30;127.63;;;114.50;;
52186;SDS011;38161;53.020;6.598;2023-07-29T10:34:00;130.65;;;117.82;;
52186;SDS011;38161;53.020;6.598;2023-07-29T10:36:27;113.07;;;98.13;;
52186;SDS011;38161;53.020;6.598;2023-07-29T10:38:54;135.77;;;115.97;;
52186;SDS011;38161;53.020;6.598;2023-07-29T10:41:21;224.02;;;116.28;;
52186;SDS011;38161;53.020;6.598;2023-07-29T10:43:48;122.35;;;108.72;;
52186;SDS011;38161;53.020;6.598;2023-07-29T10:46:17;147.43;;;130.63;;
52186;SDS011;38161;53.020;6.598;2023-07-29T10:51:35;116.00;;;105.80;;
52186;SDS011;38161;53.020;6.598;2023-07-29T10:54:04;259.77;;;184.48;;
52186;SDS011;38161;53.020;6.598;2023-07-29T10:56:40;207.10;;;100.43;;
52186;SDS011;38161;53.020;6.598;2023-07-29T11:01:42;138.68;;;116.40;;
52186;SDS011;38161;53.020;6.598;2023-07-29T11:09:42;280.45;;;140.73;;
52186;SDS011;38161;53.020;6.598;2023-07-29T11:17:47;221.63;;;112.85;;
52186;SDS011;38161;53.020;6.598;2023-07-29T11:20:28;235.65;;;126.15;;
52186;SDS011;38161;53.020;6.598;2023-07-29T11:23:02;124.80;;;110.25;;
52186;SDS011;38161;53.020;6.598;2023-07-29T11:25:31;161.20;;;126.25;;
52186;SDS011;38161;53.020;6.598;2023-07-29T11:28:02;126.68;;;108.10;;
52186;SDS011;38161;53.020;6.598;2023-07-29T11:30:28;182.98;;;120.72;;
52186;SDS011;38161;53.020;6.598;2023-07-29T11:32:57;230.43;;;113.95;;
52186;SDS011;38161;53.020;6.598;2023-07-29T11:35:26;195.52;;;110.35;;
52186;SDS011;38161;53.020;6.598;2023-07-29T11:37:54;158.95;;;119.63;;
52186;SDS011;38161;53.020;6.598;2023-07-29T11:40:22;127.68;;;115.32;;
52186;SDS011;38161;53.020;6.598;2023-07-29T11:42:49;122.47;;;107.70;;
52186;SDS011;38161;53.020;6.598;2023-07-29T11:45:16;127.18;;;115.38;;
52186;SDS011;38161;53.020;6.598;2023-07-29T11:47:44;118.05;;;107.15;;
52186;SDS011;38161;53.020;6.598;2023-07-29T11:50:11;266.40;;;137.00;;
52186;SDS011;38161;53.020;6.598;2023-07-29T11:52:42;192.55;;;116.90;;
52186;SDS011;38161;53.020;6.598;2023-07-29T11:55:10;138.20;;;115.55;;
52186;SDS011;38161;53.020;6.598;2023-07-29T11:57:38;199.93;;;113.22;;
52186;SDS011;38161;53.020;6.598;2023-07-29T12:00:06;135.05;;;113.15;;
52186;SDS011;38161;53.020;6.598;2023-07-29T12:02:39;124.75;;;110.35;;
52186;SDS011;38161;53.020;6.598;2023-07-29T12:05:10;184.90;;;122.28;;
52186;SDS011;38161;53.020;6.598;2023-07-29T12:07:39;132.60;;;105.55;;
52186;SDS011;38161;53.020;6.598;2023-07-29T12:10:07;138.15;;;121.18;;
52186;SDS011;38161;53.020;6.598;2023-07-29T12:12:48;118.50;;;108.20;;
52186;SDS011;38161;53.020;6.598;2023-07-29T12:15:24;298.15;;;119.05;;
52186;SDS011;38161;53.020;6.598;2023-07-29T12:17:52;150.27;;;135.18;;
52186;SDS011;38161;53.020;6.598;2023-07-29T12:20:22;176.68;;;121.13;;
52186;SDS011;38161;53.020;6.598;2023-07-29T12:22:58;167.82;;;138.48;;
52186;SDS011;38161;53.020;6.598;2023-07-29T12:25:30;199.43;;;118.65;;
52186;SDS011;38161;53.020;6.598;2023-07-29T12:27:56;121.07;;;108.60;;
52186;SDS011;38161;53.020;6.598;2023-07-29T12:30:28;156.13;;;119.45;;
52186;SDS011;38161;53.020;6.598;2023-07-29T12:35:20;201.32;;;120.35;;
52186;SDS011;38161;53.020;6.598;2023-07-29T12:37:46;116.30;;;104.65;;
52186;SDS011;38161;53.020;6.598;2023-07-29T12:42:49;132.38;;;110.47;;
52186;SDS011;38161;53.020;6.598;2023-07-29T12:45:17;110.78;;;98.13;;
52186;SDS011;38161;53.020;6.598;2023-07-29T12:47:48;122.40;;;96.97;;
52186;SDS011;38161;53.020;6.598;2023-07-29T12:50:15;119.88;;;108.00;;
52186;SDS011;38161;53.020;6.598;2023-07-29T12:52:42;306.33;;;129.43;;
52186;SDS011;38161;53.020;6.598;2023-07-29T12:55:09;114.93;;;99.53;;
52186;SDS011;38161;53.020;6.598;2023-07-29T12:57:39;177.90;;;119.40;;
52186;SDS011;38161;53.020;6.598;2023-07-29T13:00:07;145.10;;;111.38;;
52186;SDS011;38161;53.020;6.598;2023-07-29T13:02:35;140.18;;;108.82;;
52186;SDS011;38161;53.020;6.598;2023-07-29T13:05:01;125.05;;;99.20;;
52186;SDS011;38161;53.020;6.598;2023-07-29T13:07:27;124.38;;;111.25;;
52186;SDS011;38161;53.020;6.598;2023-07-29T13:09:55;229.15;;;124.78;;
52186;SDS011;38161;53.020;6.598;2023-07-29T13:12:22;229.45;;;133.43;;
52186;SDS011;38161;53.020;6.598;2023-07-29T13:14:50;346.08;;;161.20;;
52186;SDS011;38161;53.020;6.598;2023-07-29T13:17:17;160.48;;;125.65;;
52186;SDS011;38161;53.020;6.598;2023-07-29T13:19:47;141.02;;;103.28;;
52186;SDS011;38161;53.020;6.598;2023-07-29T13:22:16;263.45;;;122.65;;
52186;SDS011;38161;53.020;6.598;2023-07-29T13:24:42;187.95;;;105.88;;
52186;SDS011;38161;53.020;6.598;2023-07-29T13:27:08;225.80;;;115.90;;
52186;SDS011;38161;53.020;6.598;2023-07-29T13:29:34;185.65;;;118.78;;
52186;SDS011;38161;53.020;6.598;2023-07-29T13:32:01;260.83;;;111.32;;
52186;SDS011;38161;53.020;6.598;2023-07-29T13:38:17;114.57;;;97.88;;
52186;SDS011;38161;53.020;6.598;2023-07-29T13:40:46;115.07;;;104.15;;
52186;SDS011;38161;53.020;6.598;2023-07-29T13:43:12;118.10;;;106.03;;
52186;SDS011;38161;53.020;6.598;2023-07-29T13:45:39;171.10;;;118.13;;
52186;SDS011;38161;53.020;6.598;2023-07-29T13:48:05;106.30;;;95.95;;
52186;SDS011;38161;53.020;6.598;2023-07-29T13:50:31;102.13;;;93.47;;
52186;SDS011;38161;53.020;6.598;2023-07-29T13:52:57;97.07;;;90.10;;
52186;SDS011;38161;53.020;6.598;2023-07-29T13:55:23;155.13;;;91.07;;
52186;SDS011;38161;53.020;6.598;2023-07-29T13:57:49;217.60;;;106.55;;
52186;SDS011;38161;53.020;6.598;2023-07-29T14:02:41;167.68;;;91.40;;
52186;SDS011;38161;53.020;6.598;2023-07-29T14:05:08;158.32;;;95.82;;
52186;SDS011;38161;53.020;6.598;2023-07-29T14:07:35;309.50;;;106.00;;
52186;SDS011;38161;53.020;6.598;2023-07-29T14:10:05;124.32;;;99.53;;
52186;SDS011;38161;53.020;6.598;2023-07-29T14:12:32;111.43;;;90.10;;
52186;SDS011;38161;53.020;6.598;2023-07-29T14:14:59;122.72;;;84.85;;
52186;SDS011;38161;53.020;6.598;2023-07-29T14:17:26;225.00;;;102.70;;
52186;SDS011;38161;53.020;6.598;2023-07-29T14:19:52;108.97;;;84.65;;
52186;SDS011;38161;53.020;6.598;2023-07-29T14:22:18;139.30;;;97.10;;
52186;SDS011;38161;53.020;6.598;2023-07-29T14:24:44;188.00;;;103.03;;
52186;SDS011;38161;53.020;6.598;2023-07-29T14:27:10;105.30;;;91.22;;
52186;SDS011;38161;53.020;6.598;2023-07-29T14:29:36;164.35;;;95.10;;
52186;SDS011;38161;53.020;6.598;2023-07-29T14:32:03;111.55;;;98.75;;
52186;SDS011;38161;53.020;6.598;2023-07-29T14:34:30;222.98;;;106.80;;
52186;SDS011;38161;53.020;6.598;2023-07-29T14:36:55;149.88;;;106.75;;
52186;SDS011;38161;53.020;6.598;2023-07-29T14:39:21;99.60;;;90.88;;
52186;SDS011;38161;53.020;6.598;2023-07-29T14:41:48;112.35;;;101.93;;
52186;SDS011;38161;53.020;6.598;2023-07-29T14:44:14;116.90;;;96.50;;
52186;SDS011;38161;53.020;6.598;2023-07-29T14:46:40;150.07;;;93.43;;
52186;SDS011;38161;53.020;6.598;2023-07-29T14:49:06;170.15;;;95.93;;
52186;SDS011;38161;53.020;6.598;2023-07-29T14:51:32;346.90;;;112.38;;
52186;SDS011;38161;53.020;6.598;2023-07-29T14:53:58;95.20;;;86.03;;
52186;SDS011;38161;53.020;6.598;2023-07-29T14:56:24;89.72;;;80.35;;
52186;SDS011;38161;53.020;6.598;2023-07-29T14:58:50;381.60;;;110.45;;
52186;SDS011;38161;53.020;6.598;2023-07-29T15:01:17;123.95;;;93.38;;
52186;SDS011;38161;53.020;6.598;2023-07-29T15:03:43;147.38;;;106.03;;
52186;SDS011;38161;53.020;6.598;2023-07-29T15:06:09;95.97;;;86.07;;
52186;SDS011;38161;53.020;6.598;2023-07-29T15:08:35;98.10;;;82.50;;
52186;SDS011;38161;53.020;6.598;2023-07-29T15:11:02;160.73;;;94.07;;
52186;SDS011;38161;53.020;6.598;2023-07-29T15:13:28;193.13;;;86.07;;
52186;SDS011;38161;53.020;6.598;2023-07-29T15:15:55;154.55;;;95.40;;
52186;SDS011;38161;53.020;6.598;2023-07-29T15:18:21;258.08;;;94.03;;
52186;SDS011;38161;53.020;6.598;2023-07-29T15:20:47;83.43;;;78.28;;
52186;SDS011;38161;53.020;6.598;2023-07-29T15:23:14;99.57;;;91.57;;
52186;SDS011;38161;53.020;6.598;2023-07-29T15:25:39;193.10;;;94.07;;
52186;SDS011;38161;53.020;6.598;2023-07-29T15:30:32;94.53;;;80.25;;
52186;SDS011;38161;53.020;6.598;2023-07-29T15:33:02;222.45;;;97.97;;
52186;SDS011;38161;53.020;6.598;2023-07-29T15:35:28;110.65;;;86.90;;
52186;SDS011;38161;53.020;6.598;2023-07-29T15:37:54;141.48;;;96.43;;
52186;SDS011;38161;53.020;6.598;2023-07-29T15:40:20;150.70;;;92.53;;